Aérodrome :
LOGIN :

S'inscrire | Disclaimer

   EN    FR    IT 

 










Légende :    VFR   VFR Marginal   IFR   IFR Intensif   IFR Très Intensif
Visi : 
Plafond : 
>= 8 km
>= 3000ft
5 à 8 km
1000 à 3000 ft
1500m à 5 km
500 à 1000 ft
800 à 1500m
200 à 500 ft
< 800m
< 200 ft
Symboles :   Orages  Brouillard  Fortes neiges  Fortes précipitations  Vent > 20 kt
SIGMETs :   Divers  Orages  Givrage  Turbulence  Onde Orograph.  Cendres Volcan.







- Altitude de l'aérodrome : 124 ft
- Code IATA : RNS
- Voir les cartes d'approche


LFRN - Rennes

DERNIER METAR :
  • 181400Z AUTO 08007KT 040V140 CAVOK 26/18 Q1009 TEMPO VRB15G30KT 3000 TSRA BKN060CB

METARs EXPIRÉS :
  • 181330Z AUTO 08009KT 040V110 CAVOK 25/17 Q1009 TEMPO VRB15G30KT 3000 TSRA BKN060CB
  • 181300Z AUTO 06011KT CAVOK 24/17 Q1009 TEMPO 4000 SHRA BKN060CB
  • 181230Z AUTO 05008KT 020V090 CAVOK 24/17 Q1009 TEMPO 4000 SHRA BKN060CB
  • 181200Z AUTO 06008KT 020V080 CAVOK 22/17 Q1010 TEMPO 4000 SHRA BKN060CB
  • 181130Z AUTO 02008KT 340V050 CAVOK 21/17 Q1010 TEMPO 4000 SHRA BKN060CB

TAF TAF LFRN
Valide du 18 à 12h jusqu'au 19 à 12h UTC


181100Z 1812/1912 11008KT CAVOK
TEMPO 1812/1818 4000 SHRA BKN060CB
PROB40
TEMPO 1815/1818 VRB15G30KT 3000 TSRA
PROB30
TEMPO 1815/1818 TSRAGR
PROB40
TEMPO 1823/1903 4000 SHRA BKN080TCU
BECMG 1903/1905 21010KT BKN020
TEMPO 1904/1908 BKN013
TEMPO 1909/1912 5000 SHRA BKN020TCU
ATIS : +33 2 99 67 72 50
Pas de NOTAMs connus pour ce terrain.



MET'MAP, la Météo Aéronautique d'un coup d'oeil ! - Copyright ORBIFLY Décembre 2007 - Disclaimer

ORBIFLY MET'MAP TEAM :

Programmation & Développement : Alexandra Zaïnal
Conception & Développement : Baudouin d'Aumeries
Co-Programmation & Développement : Marc-Olivier Méhu
Soutien technique & logistique : Manuel Goepfert

Contact : metmap@orbifly.com




SOURCES & CREDITS :

   NOAA